sensor_id;sensor_type;location;lat;lon;timestamp;P1;durP1;ratioP1;P2;durP2;ratioP2
7747;SDS011;3918;42.564;23.164;2023-01-16T06:02:12;3.10;;;2.80;;
7747;SDS011;3918;42.564;23.164;2023-01-16T06:04:39;5.67;;;4.40;;
7747;SDS011;3918;42.564;23.164;2023-01-16T06:07:06;3.90;;;2.60;;
7747;SDS011;3918;42.564;23.164;2023-01-16T06:09:33;3.93;;;3.33;;
7747;SDS011;3918;42.564;23.164;2023-01-16T06:11:59;4.23;;;3.83;;
7747;SDS011;3918;42.564;23.164;2023-01-16T06:14:26;6.20;;;4.07;;
7747;SDS011;3918;42.564;23.164;2023-01-16T06:16:53;3.43;;;3.03;;
7747;SDS011;3918;42.564;23.164;2023-01-16T06:19:21;4.07;;;3.67;;
7747;SDS011;3918;42.564;23.164;2023-01-16T06:21:48;4.37;;;3.83;;
7747;SDS011;3918;42.564;23.164;2023-01-16T06:24:14;3.27;;;2.73;;
7747;SDS011;3918;42.564;23.164;2023-01-16T06:26:41;5.77;;;4.50;;
7747;SDS011;3918;42.564;23.164;2023-01-16T06:29:08;4.40;;;3.50;;
7747;SDS011;3918;42.564;23.164;2023-01-16T06:31:35;4.03;;;3.40;;
7747;SDS011;3918;42.564;23.164;2023-01-16T06:34:02;5.93;;;4.20;;
7747;SDS011;3918;42.564;23.164;2023-01-16T06:36:30;4.10;;;3.13;;
7747;SDS011;3918;42.564;23.164;2023-01-16T06:38:56;7.13;;;4.30;;
7747;SDS011;3918;42.564;23.164;2023-01-16T06:41:23;8.17;;;4.53;;
7747;SDS011;3918;42.564;23.164;2023-01-16T06:43:50;7.33;;;4.63;;
7747;SDS011;3918;42.564;23.164;2023-01-16T06:46:17;7.87;;;5.40;;
7747;SDS011;3918;42.564;23.164;2023-01-16T06:48:43;6.23;;;4.93;;
7747;SDS011;3918;42.564;23.164;2023-01-16T06:51:10;5.57;;;4.57;;
7747;SDS011;3918;42.564;23.164;2023-01-16T06:53:38;6.77;;;4.33;;
7747;SDS011;3918;42.564;23.164;2023-01-16T06:56:05;6.57;;;4.53;;
7747;SDS011;3918;42.564;23.164;2023-01-16T06:58:32;5.37;;;3.40;;
7747;SDS011;3918;42.564;23.164;2023-01-16T07:00:59;6.45;;;3.90;;
7747;SDS011;3918;42.564;23.164;2023-01-16T07:03:26;4.90;;;3.40;;
7747;SDS011;3918;42.564;23.164;2023-01-16T07:05:52;5.77;;;3.43;;
7747;SDS011;3918;42.564;23.164;2023-01-16T07:08:19;5.68;;;3.75;;
7747;SDS011;3918;42.564;23.164;2023-01-16T07:10:47;4.15;;;3.47;;
7747;SDS011;3918;42.564;23.164;2023-01-16T07:13:14;6.68;;;4.30;;
7747;SDS011;3918;42.564;23.164;2023-01-16T07:15:42;6.28;;;4.00;;
7747;SDS011;3918;42.564;23.164;2023-01-16T07:18:30;6.85;;;4.10;;
7747;SDS011;3918;42.564;23.164;2023-01-16T07:21:14;4.63;;;3.47;;
7747;SDS011;3918;42.564;23.164;2023-01-16T07:23:59;3.97;;;3.28;;
7747;SDS011;3918;42.564;23.164;2023-01-16T07:26:30;6.97;;;3.95;;
7747;SDS011;3918;42.564;23.164;2023-01-16T07:28:59;4.70;;;3.65;;
7747;SDS011;3918;42.564;23.164;2023-01-16T07:31:27;5.72;;;3.63;;
7747;SDS011;3918;42.564;23.164;2023-01-16T07:33:55;5.90;;;3.00;;
7747;SDS011;3918;42.564;23.164;2023-01-16T07:36:22;4.60;;;3.70;;
7747;SDS011;3918;42.564;23.164;2023-01-16T07:38:49;5.30;;;4.00;;
7747;SDS011;3918;42.564;23.164;2023-01-16T07:41:15;3.97;;;3.00;;
7747;SDS011;3918;42.564;23.164;2023-01-16T07:43:43;6.97;;;4.20;;
7747;SDS011;3918;42.564;23.164;2023-01-16T07:46:10;6.13;;;3.80;;
7747;SDS011;3918;42.564;23.164;2023-01-16T07:48:37;4.43;;;3.50;;
7747;SDS011;3918;42.564;23.164;2023-01-16T07:51:04;4.67;;;3.77;;
7747;SDS011;3918;42.564;23.164;2023-01-16T07:53:31;4.23;;;3.17;;
7747;SDS011;3918;42.564;23.164;2023-01-16T07:55:58;5.10;;;4.03;;
7747;SDS011;3918;42.564;23.164;2023-01-16T07:58:26;3.97;;;3.07;;
7747;SDS011;3918;42.564;23.164;2023-01-16T08:00:56;4.50;;;3.25;;
7747;SDS011;3918;42.564;23.164;2023-01-16T08:03:23;4.43;;;3.60;;
7747;SDS011;3918;42.564;23.164;2023-01-16T08:05:54;4.18;;;3.67;;
7747;SDS011;3918;42.564;23.164;2023-01-16T08:08:21;4.43;;;2.65;;
7747;SDS011;3918;42.564;23.164;2023-01-16T08:10:52;3.80;;;3.40;;
7747;SDS011;3918;42.564;23.164;2023-01-16T08:13:19;2.65;;;2.35;;
7747;SDS011;3918;42.564;23.164;2023-01-16T08:15:46;5.00;;;3.92;;
7747;SDS011;3918;42.564;23.164;2023-01-16T08:18:14;3.03;;;2.70;;
7747;SDS011;3918;42.564;23.164;2023-01-16T08:20:42;3.47;;;3.13;;
7747;SDS011;3918;42.564;23.164;2023-01-16T08:23:09;7.90;;;3.67;;
7747;SDS011;3918;42.564;23.164;2023-01-16T08:25:37;6.88;;;4.40;;
7747;SDS011;3918;42.564;23.164;2023-01-16T08:28:04;4.95;;;3.50;;
7747;SDS011;3918;42.564;23.164;2023-01-16T08:30:31;4.10;;;3.33;;
7747;SDS011;3918;42.564;23.164;2023-01-16T08:32:58;4.75;;;3.80;;
7747;SDS011;3918;42.564;23.164;2023-01-16T08:35:26;7.18;;;4.25;;
7747;SDS011;3918;42.564;23.164;2023-01-16T08:37:53;4.18;;;2.65;;
7747;SDS011;3918;42.564;23.164;2023-01-16T08:40:20;5.43;;;3.15;;
7747;SDS011;3918;42.564;23.164;2023-01-16T08:42:47;3.35;;;2.85;;
7747;SDS011;3918;42.564;23.164;2023-01-16T08:45:31;4.00;;;3.50;;
7747;SDS011;3918;42.564;23.164;2023-01-16T08:48:15;5.93;;;4.35;;
7747;SDS011;3918;42.564;23.164;2023-01-16T08:51:08;6.20;;;3.78;;
7747;SDS011;3918;42.564;23.164;2023-01-16T08:53:51;3.85;;;3.55;;
7747;SDS011;3918;42.564;23.164;2023-01-16T08:56:19;4.90;;;4.00;;
7747;SDS011;3918;42.564;23.164;2023-01-16T08:58:46;4.63;;;4.22;;
7747;SDS011;3918;42.564;23.164;2023-01-16T09:01:13;5.32;;;3.35;;
7747;SDS011;3918;42.564;23.164;2023-01-16T09:03:40;3.37;;;3.07;;
7747;SDS011;3918;42.564;23.164;2023-01-16T09:06:09;5.57;;;5.07;;
7747;SDS011;3918;42.564;23.164;2023-01-16T09:08:36;6.40;;;4.10;;
7747;SDS011;3918;42.564;23.164;2023-01-16T09:11:02;6.47;;;4.30;;
7747;SDS011;3918;42.564;23.164;2023-01-16T09:13:58;3.42;;;3.13;;
7747;SDS011;3918;42.564;23.164;2023-01-16T09:16:26;7.75;;;4.57;;
7747;SDS011;3918;42.564;23.164;2023-01-16T09:18:53;3.75;;;3.00;;
7747;SDS011;3918;42.564;23.164;2023-01-16T09:21:21;7.33;;;5.00;;
7747;SDS011;3918;42.564;23.164;2023-01-16T09:23:49;6.65;;;5.57;;
7747;SDS011;3918;42.564;23.164;2023-01-16T09:26:16;4.47;;;4.00;;
7747;SDS011;3918;42.564;23.164;2023-01-16T09:28:43;6.40;;;4.03;;
7747;SDS011;3918;42.564;23.164;2023-01-16T09:31:10;7.10;;;5.30;;
7747;SDS011;3918;42.564;23.164;2023-01-16T09:33:36;6.85;;;5.25;;
7747;SDS011;3918;42.564;23.164;2023-01-16T09:36:04;6.38;;;4.68;;
7747;SDS011;3918;42.564;23.164;2023-01-16T09:38:32;10.27;;;5.85;;
7747;SDS011;3918;42.564;23.164;2023-01-16T09:40:59;7.45;;;3.80;;
7747;SDS011;3918;42.564;23.164;2023-01-16T09:43:31;7.05;;;4.38;;
7747;SDS011;3918;42.564;23.164;2023-01-16T09:46:08;8.30;;;4.57;;
7747;SDS011;3918;42.564;23.164;2023-01-16T09:48:40;6.05;;;4.10;;
7747;SDS011;3918;42.564;23.164;2023-01-16T09:51:13;8.80;;;5.10;;
7747;SDS011;3918;42.564;23.164;2023-01-16T09:53:44;9.07;;;4.10;;
7747;SDS011;3918;42.564;23.164;2023-01-16T09:56:33;6.80;;;4.82;;
7747;SDS011;3918;42.564;23.164;2023-01-16T09:59:23;6.00;;;4.68;;
7747;SDS011;3918;42.564;23.164;2023-01-16T10:01:58;8.15;;;5.47;;
7747;SDS011;3918;42.564;23.164;2023-01-16T10:04:32;10.20;;;5.70;;
7747;SDS011;3918;42.564;23.164;2023-01-16T10:07:05;8.77;;;4.57;;
7747;SDS011;3918;42.564;23.164;2023-01-16T10:10:09;5.75;;;4.25;;
7747;SDS011;3918;42.564;23.164;2023-01-16T10:12:47;9.60;;;5.43;;
7747;SDS011;3918;42.564;23.164;2023-01-16T10:15:28;6.72;;;5.35;;
7747;SDS011;3918;42.564;23.164;2023-01-16T10:18:07;6.38;;;4.50;;
7747;SDS011;3918;42.564;23.164;2023-01-16T10:20:54;5.68;;;3.65;;
7747;SDS011;3918;42.564;23.164;2023-01-16T10:23:42;7.85;;;5.28;;
7747;SDS011;3918;42.564;23.164;2023-01-16T10:26:21;4.72;;;4.10;;
7747;SDS011;3918;42.564;23.164;2023-01-16T10:28:55;6.75;;;4.63;;
7747;SDS011;3918;42.564;23.164;2023-01-16T10:31:32;8.15;;;4.85;;
7747;SDS011;3918;42.564;23.164;2023-01-16T10:34:04;7.30;;;4.85;;
7747;SDS011;3918;42.564;23.164;2023-01-16T10:36:39;8.75;;;5.07;;
7747;SDS011;3918;42.564;23.164;2023-01-16T10:39:09;6.28;;;4.30;;
7747;SDS011;3918;42.564;23.164;2023-01-16T10:41:40;6.78;;;3.90;;
7747;SDS011;3918;42.564;23.164;2023-01-16T10:44:30;6.78;;;4.35;;
7747;SDS011;3918;42.564;23.164;2023-01-16T10:47:16;7.22;;;4.90;;
7747;SDS011;3918;42.564;23.164;2023-01-16T10:50:05;5.05;;;4.25;;
7747;SDS011;3918;42.564;23.164;2023-01-16T10:52:32;5.07;;;4.07;;
7747;SDS011;3918;42.564;23.164;2023-01-16T10:54:59;9.55;;;4.05;;
7747;SDS011;3918;42.564;23.164;2023-01-16T10:57:28;5.13;;;4.03;;
7747;SDS011;3918;42.564;23.164;2023-01-16T10:59:57;5.07;;;3.97;;
7747;SDS011;3918;42.564;23.164;2023-01-16T11:02:28;5.53;;;3.80;;
7747;SDS011;3918;42.564;23.164;2023-01-16T11:04:57;4.40;;;3.95;;
7747;SDS011;3918;42.564;23.164;2023-01-16T11:07:26;5.95;;;4.60;;
7747;SDS011;3918;42.564;23.164;2023-01-16T11:09:54;7.35;;;3.95;;
7747;SDS011;3918;42.564;23.164;2023-01-16T11:12:22;4.47;;;4.07;;
7747;SDS011;3918;42.564;23.164;2023-01-16T11:15:12;7.38;;;3.67;;
7747;SDS011;3918;42.564;23.164;2023-01-16T11:17:59;4.90;;;3.78;;
7747;SDS011;3918;42.564;23.164;2023-01-16T11:20:44;4.47;;;3.88;;
7747;SDS011;3918;42.564;23.164;2023-01-16T11:23:16;3.63;;;3.33;;
7747;SDS011;3918;42.564;23.164;2023-01-16T11:25:46;4.90;;;4.28;;
7747;SDS011;3918;42.564;23.164;2023-01-16T11:28:17;3.50;;;3.20;;
7747;SDS011;3918;42.564;23.164;2023-01-16T11:30:48;5.03;;;3.95;;
7747;SDS011;3918;42.564;23.164;2023-01-16T11:33:19;4.63;;;2.92;;
7747;SDS011;3918;42.564;23.164;2023-01-16T11:35:52;6.65;;;4.00;;
7747;SDS011;3918;42.564;23.164;2023-01-16T11:38:21;5.95;;;3.17;;
7747;SDS011;3918;42.564;23.164;2023-01-16T11:40:49;5.25;;;4.28;;
7747;SDS011;3918;42.564;23.164;2023-01-16T11:43:22;3.95;;;3.38;;
7747;SDS011;3918;42.564;23.164;2023-01-16T11:46:20;5.18;;;3.75;;
7747;SDS011;3918;42.564;23.164;2023-01-16T11:48:58;7.63;;;4.00;;
7747;SDS011;3918;42.564;23.164;2023-01-16T11:51:27;5.95;;;3.95;;
7747;SDS011;3918;42.564;23.164;2023-01-16T11:53:55;6.15;;;4.53;;
7747;SDS011;3918;42.564;23.164;2023-01-16T11:59:18;5.25;;;3.83;;
7747;SDS011;3918;42.564;23.164;2023-01-16T12:02:03;4.60;;;3.67;;
7747;SDS011;3918;42.564;23.164;2023-01-16T12:04:49;6.30;;;3.97;;
7747;SDS011;3918;42.564;23.164;2023-01-16T12:07:45;8.32;;;3.42;;
7747;SDS011;3918;42.564;23.164;2023-01-16T12:10:26;6.55;;;4.30;;
7747;SDS011;3918;42.564;23.164;2023-01-16T12:13:03;7.35;;;3.00;;
7747;SDS011;3918;42.564;23.164;2023-01-16T12:15:53;3.47;;;2.83;;
7747;SDS011;3918;42.564;23.164;2023-01-16T12:18:29;6.60;;;2.90;;
7747;SDS011;3918;42.564;23.164;2023-01-16T12:21:03;10.45;;;3.22;;
7747;SDS011;3918;42.564;23.164;2023-01-16T12:23:54;3.65;;;3.28;;
7747;SDS011;3918;42.564;23.164;2023-01-16T12:26:43;3.67;;;3.05;;
7747;SDS011;3918;42.564;23.164;2023-01-16T12:29:22;6.35;;;3.47;;
7747;SDS011;3918;42.564;23.164;2023-01-16T12:32:05;6.28;;;4.03;;
7747;SDS011;3918;42.564;23.164;2023-01-16T12:34:55;8.25;;;3.90;;
7747;SDS011;3918;42.564;23.164;2023-01-16T12:37:39;4.95;;;3.55;;
7747;SDS011;3918;42.564;23.164;2023-01-16T12:40:21;4.72;;;3.50;;
7747;SDS011;3918;42.564;23.164;2023-01-16T12:42:57;4.93;;;3.45;;
7747;SDS011;3918;42.564;23.164;2023-01-16T12:45:44;5.47;;;3.03;;
7747;SDS011;3918;42.564;23.164;2023-01-16T12:48:22;4.82;;;3.22;;
7747;SDS011;3918;42.564;23.164;2023-01-16T12:51:13;6.28;;;3.85;;
7747;SDS011;3918;42.564;23.164;2023-01-16T12:56:55;2.97;;;2.65;;
7747;SDS011;3918;42.564;23.164;2023-01-16T12:59:38;3.38;;;3.08;;
7747;SDS011;3918;42.564;23.164;2023-01-16T13:02:20;8.45;;;3.92;;
7747;SDS011;3918;42.564;23.164;2023-01-16T13:04:51;6.30;;;3.17;;
7747;SDS011;3918;42.564;23.164;2023-01-16T13:07:23;2.65;;;2.45;;
7747;SDS011;3918;42.564;23.164;2023-01-16T13:09:55;4.97;;;3.65;;
7747;SDS011;3918;42.564;23.164;2023-01-16T13:12:39;3.88;;;3.22;;
7747;SDS011;3918;42.564;23.164;2023-01-16T13:15:26;5.43;;;3.50;;
7747;SDS011;3918;42.564;23.164;2023-01-16T13:17:58;4.45;;;3.53;;
7747;SDS011;3918;42.564;23.164;2023-01-16T13:20:29;2.90;;;2.55;;
7747;SDS011;3918;42.564;23.164;2023-01-16T13:22:59;12.88;;;3.20;;
7747;SDS011;3918;42.564;23.164;2023-01-16T13:25:30;3.95;;;3.05;;
7747;SDS011;3918;42.564;23.164;2023-01-16T13:28:02;3.92;;;2.50;;
7747;SDS011;3918;42.564;23.164;2023-01-16T13:30:32;6.22;;;2.97;;
7747;SDS011;3918;42.564;23.164;2023-01-16T13:32:59;3.13;;;2.45;;
7747;SDS011;3918;42.564;23.164;2023-01-16T13:35:32;1.90;;;1.77;;
7747;SDS011;3918;42.564;23.164;2023-01-16T13:41:10;3.55;;;2.38;;
7747;SDS011;3918;42.564;23.164;2023-01-16T13:43:45;3.15;;;2.75;;
7747;SDS011;3918;42.564;23.164;2023-01-16T13:46:34;2.38;;;2.22;;
7747;SDS011;3918;42.564;23.164;2023-01-16T13:49:02;2.47;;;2.28;;
7747;SDS011;3918;42.564;23.164;2023-01-16T13:51:31;2.90;;;2.50;;
7747;SDS011;3918;42.564;23.164;2023-01-16T13:54:11;3.00;;;2.70;;
7747;SDS011;3918;42.564;23.164;2023-01-16T13:56:41;3.50;;;3.03;;
7747;SDS011;3918;42.564;23.164;2023-01-16T14:01:59;8.57;;;2.95;;
7747;SDS011;3918;42.564;23.164;2023-01-16T14:04:30;6.82;;;3.22;;
7747;SDS011;3918;42.564;23.164;2023-01-16T14:06:59;3.65;;;2.60;;
7747;SDS011;3918;42.564;23.164;2023-01-16T14:12:41;2.35;;;2.05;;
7747;SDS011;3918;42.564;23.164;2023-01-16T14:15:13;2.50;;;2.30;;
7747;SDS011;3918;42.564;23.164;2023-01-16T14:18:01;3.70;;;2.85;;
7747;SDS011;3918;42.564;23.164;2023-01-16T14:20:44;3.30;;;2.75;;
7747;SDS011;3918;42.564;23.164;2023-01-16T14:23:20;3.72;;;3.05;;
7747;SDS011;3918;42.564;23.164;2023-01-16T14:26:08;2.45;;;2.25;;
7747;SDS011;3918;42.564;23.164;2023-01-16T14:28:45;3.00;;;2.70;;
7747;SDS011;3918;42.564;23.164;2023-01-16T14:31:21;2.38;;;2.08;;
7747;SDS011;3918;42.564;23.164;2023-01-16T14:33:50;3.08;;;2.50;;
7747;SDS011;3918;42.564;23.164;2023-01-16T14:36:21;3.10;;;2.80;;
7747;SDS011;3918;42.564;23.164;2023-01-16T14:38:50;2.13;;;1.92;;
7747;SDS011;3918;42.564;23.164;2023-01-16T14:41:22;4.95;;;2.38;;
7747;SDS011;3918;42.564;23.164;2023-01-16T14:44:11;2.60;;;2.38;;
7747;SDS011;3918;42.564;23.164;2023-01-16T14:47:08;3.38;;;1.60;;
7747;SDS011;3918;42.564;23.164;2023-01-16T14:49:58;3.30;;;3.00;;
7747;SDS011;3918;42.564;23.164;2023-01-16T14:52:50;2.92;;;2.63;;
7747;SDS011;3918;42.564;23.164;2023-01-16T14:55:50;3.90;;;2.70;;
7747;SDS011;3918;42.564;23.164;2023-01-16T14:58:26;3.35;;;2.55;;
7747;SDS011;3918;42.564;23.164;2023-01-16T15:00:59;4.32;;;3.47;;
7747;SDS011;3918;42.564;23.164;2023-01-16T15:03:54;6.80;;;3.58;;
7747;SDS011;3918;42.564;23.164;2023-01-16T15:06:21;4.90;;;2.35;;
7747;SDS011;3918;42.564;23.164;2023-01-16T15:08:49;3.10;;;2.78;;
7747;SDS011;3918;42.564;23.164;2023-01-16T15:11:21;3.40;;;3.10;;
7747;SDS011;3918;42.564;23.164;2023-01-16T15:14:11;2.60;;;2.40;;
7747;SDS011;3918;42.564;23.164;2023-01-16T15:16:53;3.88;;;2.83;;
7747;SDS011;3918;42.564;23.164;2023-01-16T15:19:54;2.80;;;2.58;;
7747;SDS011;3918;42.564;23.164;2023-01-16T15:22:40;2.72;;;2.53;;
7747;SDS011;3918;42.564;23.164;2023-01-16T15:25:10;4.10;;;2.40;;
7747;SDS011;3918;42.564;23.164;2023-01-16T15:27:47;6.00;;;3.00;;
7747;SDS011;3918;42.564;23.164;2023-01-16T15:30:23;3.33;;;2.60;;
7747;SDS011;3918;42.564;23.164;2023-01-16T15:32:54;3.17;;;2.78;;
7747;SDS011;3918;42.564;23.164;2023-01-16T15:35:41;2.75;;;2.30;;
7747;SDS011;3918;42.564;23.164;2023-01-16T15:38:08;2.33;;;2.13;;
7747;SDS011;3918;42.564;23.164;2023-01-16T15:40:36;3.60;;;3.25;;
7747;SDS011;3918;42.564;23.164;2023-01-16T15:43:03;3.72;;;2.90;;
7747;SDS011;3918;42.564;23.164;2023-01-16T15:45:51;1.95;;;1.83;;
7747;SDS011;3918;42.564;23.164;2023-01-16T15:48:44;4.35;;;2.75;;
7747;SDS011;3918;42.564;23.164;2023-01-16T15:51:19;7.18;;;3.28;;
7747;SDS011;3918;42.564;23.164;2023-01-16T15:53:48;3.85;;;2.97;;
7747;SDS011;3918;42.564;23.164;2023-01-16T15:56:20;2.40;;;1.90;;
7747;SDS011;3918;42.564;23.164;2023-01-16T15:58:49;3.67;;;2.28;;
7747;SDS011;3918;42.564;23.164;2023-01-16T16:01:25;3.00;;;2.70;;
7747;SDS011;3918;42.564;23.164;2023-01-16T16:03:53;2.88;;;2.17;;
7747;SDS011;3918;42.564;23.164;2023-01-16T16:06:20;3.97;;;3.00;;
7747;SDS011;3918;42.564;23.164;2023-01-16T16:08:50;3.60;;;3.28;;
7747;SDS011;3918;42.564;23.164;2023-01-16T16:11:19;7.80;;;3.25;;
7747;SDS011;3918;42.564;23.164;2023-01-16T16:14:05;3.35;;;3.05;;
7747;SDS011;3918;42.564;23.164;2023-01-16T16:17:00;4.88;;;3.40;;
7747;SDS011;3918;42.564;23.164;2023-01-16T16:19:44;4.82;;;3.35;;
7747;SDS011;3918;42.564;23.164;2023-01-16T16:22:13;4.28;;;3.28;;
7747;SDS011;3918;42.564;23.164;2023-01-16T16:25:04;2.45;;;2.25;;
7747;SDS011;3918;42.564;23.164;2023-01-16T16:27:33;2.70;;;2.50;;
7747;SDS011;3918;42.564;23.164;2023-01-16T16:30:00;3.58;;;2.92;;
7747;SDS011;3918;42.564;23.164;2023-01-16T16:32:30;3.92;;;3.08;;
7747;SDS011;3918;42.564;23.164;2023-01-16T16:35:02;2.47;;;2.15;;
7747;SDS011;3918;42.564;23.164;2023-01-16T16:37:30;4.38;;;3.17;;
7747;SDS011;3918;42.564;23.164;2023-01-16T16:40:01;6.63;;;1.88;;
7747;SDS011;3918;42.564;23.164;2023-01-16T16:45:29;3.33;;;2.83;;
7747;SDS011;3918;42.564;23.164;2023-01-16T16:50:49;2.60;;;2.40;;
7747;SDS011;3918;42.564;23.164;2023-01-16T16:53:22;3.10;;;2.47;;
7747;SDS011;3918;42.564;23.164;2023-01-16T16:55:50;3.30;;;2.65;;
7747;SDS011;3918;42.564;23.164;2023-01-16T16:58:20;2.90;;;2.60;;
7747;SDS011;3918;42.564;23.164;2023-01-16T17:00:48;4.60;;;3.40;;
7747;SDS011;3918;42.564;23.164;2023-01-16T17:03:17;3.83;;;3.22;;
7747;SDS011;3918;42.564;23.164;2023-01-16T17:05:47;4.40;;;2.95;;
7747;SDS011;3918;42.564;23.164;2023-01-16T17:08:18;3.65;;;3.15;;
7747;SDS011;3918;42.564;23.164;2023-01-16T17:10:47;6.43;;;3.80;;
7747;SDS011;3918;42.564;23.164;2023-01-16T17:13:15;3.38;;;2.50;;
7747;SDS011;3918;42.564;23.164;2023-01-16T17:15:43;2.75;;;2.17;;
7747;SDS011;3918;42.564;23.164;2023-01-16T17:18:14;4.13;;;2.50;;
7747;SDS011;3918;42.564;23.164;2023-01-16T17:20:42;2.03;;;1.90;;
7747;SDS011;3918;42.564;23.164;2023-01-16T17:23:11;6.47;;;3.05;;
7747;SDS011;3918;42.564;23.164;2023-01-16T17:25:39;3.38;;;2.83;;
7747;SDS011;3918;42.564;23.164;2023-01-16T17:28:07;5.57;;;3.33;;
7747;SDS011;3918;42.564;23.164;2023-01-16T17:30:34;7.40;;;3.03;;
7747;SDS011;3918;42.564;23.164;2023-01-16T17:33:01;2.40;;;2.20;;
7747;SDS011;3918;42.564;23.164;2023-01-16T17:35:35;4.57;;;1.88;;
7747;SDS011;3918;42.564;23.164;2023-01-16T17:38:04;1.90;;;1.48;;
7747;SDS011;3918;42.564;23.164;2023-01-16T17:40:36;2.45;;;2.00;;
7747;SDS011;3918;42.564;23.164;2023-01-16T17:43:03;4.32;;;2.97;;
7747;SDS011;3918;42.564;23.164;2023-01-16T17:45:49;2.70;;;2.38;;
7747;SDS011;3918;42.564;23.164;2023-01-16T17:48:18;2.50;;;2.00;;
7747;SDS011;3918;42.564;23.164;2023-01-16T17:50:45;1.48;;;1.38;;
7747;SDS011;3918;42.564;23.164;2023-01-16T17:53:13;2.47;;;1.67;;
7747;SDS011;3918;42.564;23.164;2023-01-16T17:55:44;3.40;;;3.10;;
7747;SDS011;3918;42.564;23.164;2023-01-16T17:58:21;3.20;;;2.70;;
7747;SDS011;3918;42.564;23.164;2023-01-16T18:00:55;4.35;;;2.97;;
7747;SDS011;3918;42.564;23.164;2023-01-16T18:03:23;3.25;;;2.35;;
7747;SDS011;3918;42.564;23.164;2023-01-16T18:05:50;3.22;;;2.75;;
7747;SDS011;3918;42.564;23.164;2023-01-16T18:08:17;3.58;;;2.67;;
7747;SDS011;3918;42.564;23.164;2023-01-16T18:10:46;3.72;;;2.28;;
7747;SDS011;3918;42.564;23.164;2023-01-16T18:13:12;5.82;;;2.92;;
7747;SDS011;3918;42.564;23.164;2023-01-16T18:15:57;2.30;;;1.58;;
7747;SDS011;3918;42.564;23.164;2023-01-16T18:18:41;2.65;;;2.45;;
7747;SDS011;3918;42.564;23.164;2023-01-16T18:21:11;5.38;;;2.90;;
7747;SDS011;3918;42.564;23.164;2023-01-16T18:23:57;2.95;;;2.42;;
7747;SDS011;3918;42.564;23.164;2023-01-16T18:26:25;2.70;;;2.45;;
7747;SDS011;3918;42.564;23.164;2023-01-16T18:28:52;5.78;;;2.40;;
7747;SDS011;3918;42.564;23.164;2023-01-16T18:31:19;2.55;;;2.35;;
7747;SDS011;3918;42.564;23.164;2023-01-16T18:33:47;3.50;;;2.88;;
7747;SDS011;3918;42.564;23.164;2023-01-16T18:36:18;2.50;;;1.90;;
7747;SDS011;3918;42.564;23.164;2023-01-16T18:38:46;3.35;;;2.83;;
7747;SDS011;3918;42.564;23.164;2023-01-16T18:41:31;2.90;;;2.70;;
7747;SDS011;3918;42.564;23.164;2023-01-16T18:44:16;2.88;;;2.45;;
7747;SDS011;3918;42.564;23.164;2023-01-16T18:47:00;8.25;;;3.03;;
7747;SDS011;3918;42.564;23.164;2023-01-16T18:49:44;4.25;;;3.05;;
7747;SDS011;3918;42.564;23.164;2023-01-16T18:52:29;4.28;;;2.67;;
7747;SDS011;3918;42.564;23.164;2023-01-16T18:55:17;3.20;;;2.90;;
7747;SDS011;3918;42.564;23.164;2023-01-16T18:58:04;3.63;;;3.35;;
7747;SDS011;3918;42.564;23.164;2023-01-16T19:00:54;2.85;;;2.65;;
7747;SDS011;3918;42.564;23.164;2023-01-16T19:03:39;2.45;;;2.20;;
7747;SDS011;3918;42.564;23.164;2023-01-16T19:06:05;10.20;;;2.60;;
7747;SDS011;3918;42.564;23.164;2023-01-16T19:08:32;2.88;;;2.42;;
7747;SDS011;3918;42.564;23.164;2023-01-16T19:10:59;2.63;;;2.33;;
7747;SDS011;3918;42.564;23.164;2023-01-16T19:13:29;4.15;;;3.58;;
7747;SDS011;3918;42.564;23.164;2023-01-16T19:16:05;6.20;;;2.50;;
7747;SDS011;3918;42.564;23.164;2023-01-16T19:18:50;3.25;;;2.92;;
7747;SDS011;3918;42.564;23.164;2023-01-16T19:21:17;3.47;;;3.17;;
7747;SDS011;3918;42.564;23.164;2023-01-16T19:23:44;3.15;;;2.80;;
7747;SDS011;3918;42.564;23.164;2023-01-16T19:26:11;2.78;;;2.53;;
7747;SDS011;3918;42.564;23.164;2023-01-16T19:28:39;3.88;;;3.00;;
7747;SDS011;3918;42.564;23.164;2023-01-16T19:31:06;3.90;;;3.17;;
7747;SDS011;3918;42.564;23.164;2023-01-16T19:33:33;3.00;;;2.58;;
7747;SDS011;3918;42.564;23.164;2023-01-16T19:36:01;1.65;;;1.55;;
7747;SDS011;3918;42.564;23.164;2023-01-16T19:38:28;6.97;;;2.97;;
7747;SDS011;3918;42.564;23.164;2023-01-16T19:40:59;3.13;;;2.80;;
7747;SDS011;3918;42.564;23.164;2023-01-16T19:43:26;2.33;;;2.13;;
7747;SDS011;3918;42.564;23.164;2023-01-16T19:46:12;4.93;;;2.55;;
7747;SDS011;3918;42.564;23.164;2023-01-16T19:48:56;3.00;;;2.58;;
7747;SDS011;3918;42.564;23.164;2023-01-16T19:51:23;5.72;;;3.38;;
7747;SDS011;3918;42.564;23.164;2023-01-16T19:53:50;2.85;;;2.15;;
7747;SDS011;3918;42.564;23.164;2023-01-16T19:56:17;1.80;;;1.70;;
7747;SDS011;3918;42.564;23.164;2023-01-16T19:58:44;4.85;;;2.70;;
7747;SDS011;3918;42.564;23.164;2023-01-16T20:33:07;4.22;;;3.40;;
7747;SDS011;3918;42.564;23.164;2023-01-16T20:35:34;5.57;;;2.70;;
